createdAt,value
2018-04-26T00:01:53.005Z,9.84
2018-04-26T00:04:21.384Z,9.87
2018-04-26T00:06:49.469Z,9.88
2018-04-26T00:09:17.521Z,9.77
2018-04-26T00:11:45.597Z,9.81
2018-04-26T00:14:13.669Z,9.78
2018-04-26T00:16:41.716Z,9.80
2018-04-26T00:19:09.833Z,9.74
2018-04-26T00:21:37.912Z,9.61
2018-04-26T00:24:05.984Z,9.61
2018-04-26T00:26:34.261Z,9.66
2018-04-26T00:29:02.333Z,9.69
2018-04-26T00:31:30.405Z,9.66
2018-04-26T00:33:58.478Z,9.60
2018-04-26T00:36:26.549Z,9.59
2018-04-26T00:38:54.605Z,9.55
2018-04-26T00:41:23.189Z,9.53
2018-04-26T00:43:51.229Z,9.53
2018-04-26T00:46:19.313Z,9.51
2018-04-26T00:48:47.724Z,9.46
2018-04-26T00:51:15.752Z,9.37
2018-04-26T00:53:43.812Z,9.36
2018-04-26T00:56:11.889Z,9.34
2018-04-26T00:58:40.157Z,9.38
2018-04-26T01:01:08.237Z,9.42
2018-04-26T01:03:36.407Z,9.44
2018-04-26T01:06:04.482Z,9.46
2018-04-26T01:08:32.543Z,9.54
2018-04-26T01:11:00.619Z,9.49
2018-04-26T01:13:28.683Z,9.45
2018-04-26T01:15:56.732Z,9.40
2018-04-26T01:18:25.882Z,9.30
2018-04-26T01:20:53.973Z,9.30
2018-04-26T01:23:22.052Z,9.30
2018-04-26T01:25:51.258Z,9.31
2018-04-26T01:28:20.112Z,9.26
2018-04-26T01:30:48.205Z,9.23
2018-04-26T01:33:16.585Z,9.20
2018-04-26T01:35:44.877Z,9.24
2018-04-26T01:38:13.737Z,9.18
2018-04-26T01:40:41.802Z,9.16
2018-04-26T01:43:09.908Z,9.09
2018-04-26T01:45:38.745Z,9.03
2018-04-26T01:48:06.837Z,9.00
2018-04-26T01:50:34.912Z,8.97
2018-04-26T01:53:02.981Z,8.93
2018-04-26T01:55:31.393Z,8.89
2018-04-26T01:58:00.253Z,8.88
2018-04-26T02:00:28.516Z,8.91
2018-04-26T02:02:56.941Z,8.86
2018-04-26T02:05:25.801Z,8.82
2018-04-26T02:07:53.886Z,8.81
2018-04-26T02:10:24.297Z,8.85
2018-04-26T02:12:52.368Z,8.84
2018-04-26T02:15:21.186Z,8.89
2018-04-26T02:17:50.082Z,8.86
2018-04-26T02:20:18.922Z,8.86
2018-04-26T02:22:47.013Z,8.87
2018-04-26T02:32:02.673Z,8.82
2018-04-26T02:34:31.513Z,8.76
2018-04-26T02:36:59.597Z,8.79
2018-04-26T02:39:27.705Z,8.76
2018-04-26T02:41:56.549Z,8.75
2018-04-26T02:44:24.607Z,8.68
2018-04-26T02:46:52.737Z,8.63
2018-04-26T02:49:21.597Z,8.50
2018-04-26T02:51:49.665Z,8.57
2018-04-26T02:54:18.967Z,8.58
2018-04-26T02:56:47.037Z,8.58
2018-04-26T02:59:15.142Z,8.56
2018-04-26T03:01:44.231Z,8.55
2018-04-26T03:04:13.121Z,8.52
2018-04-26T03:06:41.165Z,8.46
2018-04-26T03:09:09.569Z,8.44
2018-04-26T03:11:37.647Z,8.35
2018-04-26T03:14:05.885Z,8.30
2018-04-26T03:16:33.962Z,8.22
2018-04-26T03:19:02.045Z,8.22
2018-04-26T03:21:30.093Z,8.19
2018-04-26T03:23:58.172Z,8.23
2018-04-26T03:26:26.274Z,8.25
2018-04-26T03:28:54.317Z,8.24
2018-04-26T03:31:22.393Z,8.22
2018-04-26T03:33:50.476Z,8.20
2018-04-26T03:36:18.545Z,8.27
2018-04-26T03:38:46.925Z,8.20
2018-04-26T03:41:14.980Z,8.16
2018-04-26T03:43:43.053Z,8.21
2018-04-26T03:46:11.461Z,8.24
2018-04-26T03:48:39.537Z,8.19
2018-04-26T03:51:08.393Z,8.20
2018-04-26T03:53:36.469Z,8.10
2018-04-26T03:56:04.566Z,8.16
2018-04-26T03:58:32.641Z,8.16
2018-04-26T04:01:01.844Z,8.11
2018-04-26T04:03:31.541Z,8.04
2018-04-26T04:05:59.609Z,8.05
2018-04-26T04:08:27.681Z,8.03
2018-04-26T04:10:55.732Z,7.98
2018-04-26T04:13:23.832Z,8.01
2018-04-26T04:15:52.833Z,8.02
2018-04-26T04:18:20.865Z,8.01
2018-04-26T04:20:48.961Z,8.02
2018-04-26T04:23:17.416Z,7.93
2018-04-26T04:25:45.488Z,8.00
2018-04-26T04:28:14.383Z,8.05
2018-04-26T04:30:42.469Z,8.04
2018-04-26T04:33:10.549Z,8.08
2018-04-26T04:35:38.621Z,8.12
2018-04-26T04:38:06.989Z,8.12
2018-04-26T04:40:35.046Z,8.22
2018-04-26T04:43:03.117Z,8.32
2018-04-26T04:45:31.521Z,8.43
2018-04-26T04:47:59.570Z,8.55
2018-04-26T04:50:27.665Z,8.68
2018-04-26T04:52:55.819Z,8.76
2018-04-26T04:55:23.888Z,8.87
2018-04-26T04:57:52.785Z,8.87
2018-04-26T05:00:20.850Z,8.75
2018-04-26T05:02:48.912Z,8.86
2018-04-26T05:05:17.633Z,8.89
2018-04-26T05:07:45.705Z,8.89
2018-04-26T05:10:14.516Z,8.81
2018-04-26T05:12:42.955Z,8.82
2018-04-26T05:15:10.998Z,8.89
2018-04-26T05:17:39.057Z,8.88
2018-04-26T05:20:07.155Z,8.79
2018-04-26T05:22:35.256Z,8.98
2018-04-26T05:25:03.998Z,9.08
2018-04-26T05:27:32.088Z,9.21
2018-04-26T05:30:00.232Z,9.19
2018-04-26T05:32:29.051Z,9.26
2018-04-26T05:34:57.728Z,9.38
2018-04-26T05:37:26.544Z,9.44
2018-04-26T05:39:55.322Z,9.54
2018-04-26T05:42:23.980Z,9.53
2018-04-26T05:44:52.866Z,9.69
2018-04-26T05:47:21.650Z,9.98
2018-04-26T05:49:50.548Z,10.44
2018-04-26T05:52:19.328Z,10.33
2018-04-26T05:54:48.273Z,10.68
2018-04-26T05:57:17.028Z,10.78
2018-04-26T05:59:46.013Z,10.77
2018-04-26T06:02:14.421Z,10.83
2018-04-26T06:04:43.215Z,10.87
2018-04-26T06:07:12.115Z,10.78
2018-04-26T06:09:40.185Z,10.88
2018-04-26T06:12:08.284Z,10.76
2018-04-26T06:14:36.692Z,10.57
2018-04-26T06:17:04.838Z,10.56
2018-04-26T06:19:33.598Z,10.50
2018-04-26T06:22:02.704Z,10.59
2018-04-26T06:24:32.286Z,10.88
2018-04-26T06:27:00.941Z,10.92
2018-04-26T06:29:29.861Z,10.64
2018-04-26T06:31:58.520Z,10.98
2018-04-26T06:34:28.129Z,11.06
2018-04-26T06:36:57.181Z,11.01
2018-04-26T06:39:26.002Z,11.42
2018-04-26T06:41:54.884Z,11.48
2018-04-26T06:44:23.478Z,11.52
2018-04-26T06:46:52.133Z,11.61
2018-04-26T06:49:21.675Z,11.59
2018-04-26T06:51:51.336Z,11.83
2018-04-26T06:54:20.911Z,11.80
2018-04-26T06:56:49.391Z,12.26
2018-04-26T06:59:18.110Z,11.92
2018-04-26T07:01:47.513Z,12.51
2018-04-26T07:04:17.021Z,13.05
2018-04-26T07:06:45.776Z,13.84
2018-04-26T07:09:14.842Z,13.69
2018-04-26T07:11:43.483Z,13.87
2018-04-26T07:14:13.091Z,15.04
2018-04-26T07:16:42.396Z,16.23
2018-04-26T07:19:11.264Z,15.30
2018-04-26T07:21:40.158Z,14.47
2018-04-26T07:24:08.721Z,14.23
2018-04-26T07:26:37.805Z,13.79
2018-04-26T07:29:08.553Z,13.35
2018-04-26T07:31:37.537Z,13.22
2018-04-26T07:34:06.225Z,12.78
2018-04-26T07:36:35.017Z,13.17
2018-04-26T07:39:03.624Z,13.64
2018-04-26T07:41:33.868Z,13.42
2018-04-26T07:44:02.049Z,13.87
2018-04-26T07:46:31.084Z,14.18
2018-04-26T07:48:59.720Z,13.75
2018-04-26T07:51:29.182Z,13.58
2018-04-26T07:53:58.145Z,13.07
2018-04-26T07:56:27.478Z,12.76
2018-04-26T07:58:56.256Z,12.66
2018-04-26T08:01:24.960Z,12.95
2018-04-26T08:03:54.331Z,13.12
2018-04-26T08:06:23.723Z,13.33
2018-04-26T08:08:52.858Z,13.24
2018-04-26T08:11:21.557Z,13.36
2018-04-26T08:13:51.149Z,14.57
2018-04-26T08:16:19.645Z,14.66
2018-04-26T08:18:50.024Z,14.24
2018-04-26T08:21:18.666Z,15.91
2018-04-26T08:23:48.453Z,15.44
2018-04-26T08:26:16.543Z,16.25
2018-04-26T08:28:45.013Z,17.47
2018-04-26T08:31:13.593Z,17.87
2018-04-26T08:33:42.685Z,17.42
2018-04-26T08:36:11.856Z,17.06
2018-04-26T08:38:40.792Z,16.29
2018-04-26T08:41:10.565Z,15.89
2018-04-26T08:43:39.437Z,16.27
2018-04-26T08:46:08.161Z,16.06
2018-04-26T08:48:36.421Z,15.51
2018-04-26T08:51:05.029Z,15.06
2018-04-26T08:53:33.917Z,15.47
2018-04-26T08:56:02.763Z,16.53
2018-04-26T08:58:31.501Z,16.38
2018-04-26T09:01:01.113Z,16.62
2018-04-26T09:03:31.341Z,16.16
2018-04-26T09:06:00.193Z,16.53
2018-04-26T09:08:28.777Z,16.38
2018-04-26T09:10:57.352Z,15.97
2018-04-26T09:13:26.146Z,15.62
2018-04-26T09:15:56.209Z,15.08
2018-04-26T09:18:24.977Z,16.87
2018-04-26T09:20:54.393Z,16.75
2018-04-26T09:23:24.276Z,17.40
2018-04-26T09:25:53.355Z,16.89
2018-04-26T09:28:22.289Z,17.56
2018-04-26T09:30:52.585Z,16.40
2018-04-26T09:33:21.544Z,16.16
2018-04-26T09:35:50.472Z,17.42
2018-04-26T09:38:19.397Z,18.00
2018-04-26T09:40:48.888Z,17.55
2018-04-26T09:43:17.369Z,17.22
2018-04-26T09:45:46.985Z,16.89
2018-04-26T09:48:16.345Z,18.03
2018-04-26T09:50:45.163Z,18.42
2018-04-26T09:53:15.468Z,18.06
2018-04-26T09:55:44.440Z,18.70
2018-04-26T09:58:12.945Z,18.25
2018-04-26T10:00:42.644Z,17.97
2018-04-26T10:03:11.371Z,18.08
2018-04-26T10:05:40.877Z,17.46
2018-04-26T10:08:09.753Z,17.65
2018-04-26T10:10:38.419Z,17.67
2018-04-26T10:13:07.241Z,18.57
2018-04-26T10:15:36.812Z,18.58
2018-04-26T10:18:06.153Z,17.96
2018-04-26T10:20:34.629Z,16.94
2018-04-26T10:23:03.482Z,17.01
2018-04-26T10:25:32.382Z,16.90
2018-04-26T10:28:01.674Z,17.00
2018-04-26T10:30:30.778Z,16.42
2018-04-26T10:32:58.893Z,16.53
2018-04-26T10:35:28.501Z,16.49
2018-04-26T10:37:57.702Z,15.82
2018-04-26T10:40:27.033Z,17.55
2018-04-26T10:42:55.842Z,18.19
2018-04-26T10:45:24.549Z,17.53
2018-04-26T10:47:53.296Z,17.68
2018-04-26T10:50:22.307Z,16.96
2018-04-26T10:52:51.179Z,17.24
2018-04-26T10:55:20.692Z,18.38
2018-04-26T10:57:49.777Z,20.11
2018-04-26T11:00:18.619Z,20.82
2018-04-26T11:02:48.192Z,19.66
2018-04-26T11:05:17.209Z,18.62
2018-04-26T11:07:45.992Z,17.74
2018-04-26T11:10:14.589Z,17.91
2018-04-26T11:12:44.072Z,17.59
2018-04-26T11:15:12.773Z,19.51
2018-04-26T11:17:41.449Z,19.22
2018-04-26T11:20:11.031Z,20.89
2018-04-26T11:22:39.596Z,19.98
2018-04-26T11:25:08.121Z,19.51
2018-04-26T11:27:37.532Z,18.82
2018-04-26T11:30:08.037Z,19.86
2018-04-26T11:32:36.881Z,20.97
2018-04-26T11:35:06.570Z,20.93
2018-04-26T11:37:36.283Z,21.24
2018-04-26T11:40:05.677Z,21.41
2018-04-26T11:42:33.715Z,22.51
2018-04-26T11:45:02.580Z,22.25
2018-04-26T11:47:31.424Z,23.68
2018-04-26T11:50:00.830Z,21.89
2018-04-26T11:52:31.741Z,21.77
2018-04-26T11:55:00.398Z,20.76
2018-04-26T11:57:29.036Z,21.58
2018-04-26T11:59:57.900Z,21.40
2018-04-26T12:02:26.982Z,23.29
2018-04-26T12:04:55.605Z,23.65
2018-04-26T12:07:24.267Z,24.88
2018-04-26T12:09:52.953Z,23.96
2018-04-26T12:12:21.030Z,23.05
2018-04-26T12:14:49.133Z,21.39
2018-04-26T12:17:19.216Z,20.69
2018-04-26T12:19:47.949Z,19.56
2018-04-26T12:22:16.692Z,19.40
2018-04-26T12:24:45.496Z,19.11
2018-04-26T12:27:13.588Z,18.40
2018-04-26T12:29:43.166Z,18.83
2018-04-26T12:32:11.913Z,18.28
2018-04-26T12:34:40.961Z,19.85
2018-04-26T12:37:10.216Z,21.74
2018-04-26T12:39:39.049Z,22.16
2018-04-26T12:42:07.688Z,22.83
2018-04-26T12:44:36.420Z,22.50
2018-04-26T12:47:05.176Z,20.79
2018-04-26T12:49:33.249Z,19.34
2018-04-26T12:52:02.098Z,19.34
2018-04-26T12:54:30.905Z,19.31
2018-04-26T12:56:59.549Z,19.51
2018-04-26T12:59:28.396Z,19.16
2018-04-26T13:01:57.538Z,20.70
2018-04-26T13:04:27.236Z,20.81
2018-04-26T13:06:56.118Z,22.01
2018-04-26T13:09:24.861Z,21.92
2018-04-26T13:11:53.661Z,22.08
2018-04-26T13:14:21.726Z,22.49
2018-04-26T13:16:50.417Z,22.91
2018-04-26T13:19:19.401Z,22.79
2018-04-26T13:21:48.869Z,21.73
2018-04-26T13:24:18.544Z,22.37
2018-04-26T13:26:47.412Z,22.24
2018-04-26T13:29:16.348Z,21.10
2018-04-26T13:31:45.017Z,20.78
2018-04-26T13:34:13.105Z,20.22
2018-04-26T13:36:43.413Z,20.65
2018-04-26T13:39:12.173Z,20.45
2018-04-26T13:41:41.460Z,20.33
2018-04-26T13:44:10.393Z,19.29
2018-04-26T13:46:39.244Z,21.16
2018-04-26T13:49:07.872Z,21.93
2018-04-26T13:51:36.624Z,22.35
2018-04-26T13:54:05.340Z,21.62
2018-04-26T13:56:34.510Z,20.69
2018-04-26T13:59:03.720Z,19.87
2018-04-26T14:01:32.624Z,19.39
2018-04-26T14:04:01.476Z,19.02
2018-04-26T14:06:29.546Z,18.75
2018-04-26T14:09:00.961Z,18.55
2018-04-26T14:11:30.529Z,19.31
2018-04-26T14:13:59.471Z,19.31
2018-04-26T14:16:28.942Z,18.65
2018-04-26T14:18:57.520Z,19.61
2018-04-26T14:21:25.565Z,19.44
2018-04-26T14:23:53.653Z,19.39
2018-04-26T14:26:22.337Z,19.41
2018-04-26T14:28:51.937Z,19.49
2018-04-26T14:31:20.953Z,19.31
2018-04-26T14:33:49.645Z,18.52
2018-04-26T14:36:19.074Z,18.93
2018-04-26T14:38:47.900Z,19.33
2018-04-26T14:41:16.757Z,18.97
2018-04-26T14:43:46.343Z,19.83
2018-04-26T14:46:15.176Z,19.93
2018-04-26T14:48:44.185Z,19.84
2018-04-26T14:51:13.592Z,19.43
2018-04-26T14:53:41.686Z,19.63
2018-04-26T14:56:10.536Z,19.20
2018-04-26T14:58:39.453Z,18.79
2018-04-26T15:01:08.437Z,18.72
2018-04-26T15:03:37.441Z,18.22
2018-04-26T15:06:06.549Z,18.00
2018-04-26T15:08:35.476Z,18.00
2018-04-26T15:11:05.133Z,18.25
2018-04-26T15:13:33.188Z,18.19
2018-04-26T15:16:02.010Z,18.39
2018-04-26T15:18:30.596Z,18.55
2018-04-26T15:20:59.453Z,17.97
2018-04-26T15:23:27.549Z,17.67
2018-04-26T15:25:56.137Z,17.86
2018-04-26T15:28:24.193Z,18.04
2018-04-26T15:30:53.816Z,17.80
2018-04-26T15:33:21.905Z,17.44
2018-04-26T15:35:49.945Z,17.42
2018-04-26T15:38:18.545Z,17.36
2018-04-26T15:40:46.617Z,17.65
2018-04-26T15:43:15.465Z,17.52
2018-04-26T15:45:43.853Z,17.03
2018-04-26T15:48:11.937Z,16.95
2018-04-26T15:50:40.009Z,16.66
2018-04-26T15:53:08.398Z,16.76
2018-04-26T15:55:36.477Z,16.71
2018-04-26T15:58:04.571Z,16.40
2018-04-26T16:00:33.816Z,16.31
2018-04-26T16:03:01.919Z,16.37
2018-04-26T16:05:30.016Z,16.66
2018-04-26T16:08:00.197Z,16.43
2018-04-26T16:10:30.313Z,15.97
2018-04-26T16:13:00.168Z,16.01
2018-04-26T16:15:30.033Z,15.76
2018-04-26T16:17:58.113Z,16.00
2018-04-26T16:20:29.693Z,16.10
2018-04-26T16:22:58.561Z,16.11
2018-04-26T16:25:26.649Z,16.32
2018-04-26T16:27:55.041Z,16.24
2018-04-26T16:30:23.727Z,16.35
2018-04-26T16:32:54.329Z,16.46
2018-04-26T16:35:23.948Z,16.53
2018-04-26T16:37:52.961Z,16.48
2018-04-26T16:40:21.809Z,16.56
2018-04-26T16:42:49.919Z,16.67
2018-04-26T16:45:18.790Z,16.39
2018-04-26T16:47:47.561Z,15.99
2018-04-26T16:50:16.593Z,16.03
2018-04-26T16:52:45.545Z,16.04
2018-04-26T16:55:13.628Z,15.81
2018-04-26T16:57:42.009Z,15.76
2018-04-26T17:00:11.135Z,15.81
2018-04-26T17:02:40.522Z,15.57
2018-04-26T17:05:08.612Z,15.43
2018-04-26T17:07:37.472Z,15.59
2018-04-26T17:10:05.542Z,15.52
2018-04-26T17:12:33.641Z,15.46
2018-04-26T17:15:02.505Z,15.10
2018-04-26T17:17:30.600Z,15.18
2018-04-26T17:20:00.284Z,15.20
2018-04-26T17:22:28.418Z,15.09
2018-04-26T17:24:56.520Z,15.08
2018-04-26T17:27:24.641Z,14.94
2018-04-26T17:29:53.493Z,14.85
2018-04-26T17:32:21.561Z,14.57
2018-04-26T17:34:49.657Z,14.53
2018-04-26T17:37:17.725Z,14.62
2018-04-26T17:39:45.809Z,14.42
2018-04-26T17:42:14.511Z,14.39
2018-04-26T17:44:42.559Z,14.20
2018-04-26T17:47:10.605Z,14.09
2018-04-26T17:49:39.369Z,14.09
2018-04-26T17:52:08.409Z,13.99
2018-04-26T17:54:36.449Z,13.85
2018-04-26T17:57:05.272Z,13.67
2018-04-26T17:59:34.140Z,13.66
2018-04-26T18:02:02.217Z,13.51
2018-04-26T18:04:30.568Z,13.47
2018-04-26T18:06:58.665Z,13.30
2018-04-26T18:09:26.737Z,13.30
2018-04-26T18:11:54.826Z,13.17
2018-04-26T18:14:23.689Z,13.08
2018-04-26T18:16:51.773Z,13.04
2018-04-26T18:19:19.873Z,12.94
2018-04-26T18:21:50.577Z,12.80
2018-04-26T18:24:18.929Z,12.65
2018-04-26T18:26:47.009Z,12.57
2018-04-26T18:29:15.393Z,12.52
2018-04-26T18:31:43.488Z,12.47
2018-04-26T18:34:11.537Z,12.34
2018-04-26T18:36:39.937Z,12.22
2018-04-26T18:39:08.009Z,12.07
2018-04-26T18:41:36.081Z,11.99
2018-04-26T18:44:05.051Z,11.87
2018-04-26T18:46:33.117Z,11.65
2018-04-26T18:49:01.216Z,11.62
2018-04-26T18:51:29.597Z,11.54
2018-04-26T18:53:57.669Z,11.33
2018-04-26T18:56:25.741Z,11.32
2018-04-26T18:58:54.116Z,11.26
2018-04-26T19:01:22.193Z,11.16
2018-04-26T19:03:50.876Z,11.13
2018-04-26T19:06:21.393Z,11.11
2018-04-26T19:08:50.029Z,11.08
2018-04-26T19:11:20.517Z,11.09
2018-04-26T19:13:48.589Z,11.06
2018-04-26T19:16:17.581Z,10.93
2018-04-26T19:18:45.629Z,10.92
2018-04-26T19:21:13.725Z,10.84
2018-04-26T19:23:42.613Z,10.82
2018-04-26T19:26:10.664Z,10.77
2018-04-26T19:28:38.757Z,10.72
2018-04-26T19:31:06.848Z,10.67
2018-04-26T19:33:35.702Z,10.49
2018-04-26T19:36:03.793Z,10.40
2018-04-26T19:38:32.116Z,10.30
2018-04-26T19:41:00.105Z,10.31
2018-04-26T19:43:28.176Z,10.30
2018-04-26T19:45:56.262Z,10.25
2018-04-26T19:48:24.340Z,10.26
2018-04-26T19:50:52.415Z,10.26
2018-04-26T19:53:20.796Z,10.23
2018-04-26T19:55:48.864Z,10.16
2018-04-26T19:58:16.929Z,10.11
2018-04-26T20:00:45.272Z,9.98
2018-04-26T20:03:13.311Z,9.87
2018-04-26T20:05:41.513Z,9.89
2018-04-26T20:08:09.931Z,9.82
2018-04-26T20:10:37.972Z,9.71
2018-04-26T20:13:06.065Z,9.72
2018-04-26T20:15:34.385Z,9.69
2018-04-26T20:18:03.421Z,9.66
2018-04-26T20:20:31.482Z,9.67
2018-04-26T20:22:59.809Z,9.61
2018-04-26T20:25:27.881Z,9.39
2018-04-26T20:27:55.908Z,9.41
2018-04-26T20:30:24.232Z,9.41
2018-04-26T20:32:52.301Z,9.40
2018-04-26T20:35:20.325Z,9.38
2018-04-26T20:37:48.704Z,9.30
2018-04-26T20:40:16.789Z,9.28
2018-04-26T20:42:44.836Z,9.24
2018-04-26T20:45:13.281Z,9.18
2018-04-26T20:47:42.086Z,9.16
2018-04-26T20:50:10.208Z,9.13
2018-04-26T20:52:38.485Z,9.13
2018-04-26T20:55:06.633Z,9.13
2018-04-26T20:57:34.709Z,9.12
2018-04-26T21:00:03.123Z,9.13
2018-04-26T21:02:32.093Z,9.17
2018-04-26T21:05:00.181Z,9.16
2018-04-26T21:07:28.475Z,9.09
2018-04-26T21:09:56.551Z,9.13
2018-04-26T21:12:25.380Z,8.98
2018-04-26T21:14:53.477Z,8.97
2018-04-26T21:17:21.548Z,8.98
2018-04-26T21:19:49.804Z,8.95
2018-04-26T21:22:18.217Z,8.93
2018-04-26T21:24:46.289Z,8.87
2018-04-26T21:27:14.361Z,8.82
2018-04-26T21:29:42.444Z,8.76
2018-04-26T21:32:10.505Z,8.70
2018-04-26T21:34:38.572Z,8.64
2018-04-26T21:37:06.629Z,8.61
2018-04-26T21:39:34.689Z,8.49
2018-04-26T21:42:02.750Z,8.39
2018-04-26T21:44:31.240Z,8.37
2018-04-26T21:46:59.324Z,8.33
2018-04-26T21:49:27.397Z,8.30
2018-04-26T21:51:56.195Z,8.28
2018-04-26T21:54:24.257Z,8.29
2018-04-26T21:56:52.329Z,8.29
2018-04-26T21:59:20.721Z,8.29
2018-04-26T22:01:48.768Z,8.28
2018-04-26T22:04:17.443Z,8.21
2018-04-26T22:06:45.512Z,8.19
2018-04-26T22:09:13.896Z,8.10
2018-04-26T22:11:41.936Z,7.99
2018-04-26T22:14:10.460Z,7.97
2018-04-26T22:16:38.516Z,7.86
2018-04-26T22:19:06.589Z,7.80
2018-04-26T22:21:34.985Z,7.82
2018-04-26T22:24:03.065Z,7.80
2018-04-26T22:26:31.137Z,7.80
2018-04-26T22:29:00.040Z,7.80
2018-04-26T22:31:28.104Z,7.75
2018-04-26T22:33:56.889Z,7.74
2018-04-26T22:36:24.972Z,7.71
2018-04-26T22:38:53.036Z,7.63
2018-04-26T22:41:21.389Z,7.59
2018-04-26T22:43:49.472Z,7.53
2018-04-26T22:46:17.557Z,7.41
2018-04-26T22:48:45.633Z,7.37
2018-04-26T22:51:13.673Z,7.40
2018-04-26T22:53:41.757Z,7.38
2018-04-26T22:56:10.049Z,7.36
2018-04-26T22:58:38.093Z,7.31
2018-04-26T23:01:06.181Z,7.23
2018-04-26T23:03:34.269Z,7.29
2018-04-26T23:06:02.337Z,7.31
2018-04-26T23:08:30.414Z,7.23
2018-04-26T23:10:58.764Z,7.19
2018-04-26T23:13:26.816Z,7.11
2018-04-26T23:15:54.875Z,7.08
2018-04-26T23:18:23.225Z,7.04
2018-04-26T23:20:52.793Z,7.06
2018-04-26T23:23:21.047Z,7.12
2018-04-26T23:25:49.165Z,7.15
2018-04-26T23:28:17.236Z,7.25
2018-04-26T23:30:45.285Z,7.30
2018-04-26T23:33:13.668Z,7.35
2018-04-26T23:35:41.845Z,7.37
2018-04-26T23:38:09.912Z,7.39
2018-04-26T23:40:38.232Z,7.39
2018-04-26T23:43:07.113Z,7.38
2018-04-26T23:45:35.972Z,7.39
2018-04-26T23:48:04.349Z,7.37
2018-04-26T23:50:32.421Z,7.35
2018-04-26T23:53:00.514Z,7.36
2018-04-26T23:55:28.901Z,7.31
2018-04-26T23:57:56.945Z,7.39
